Time;durP1;ratioP1;P1;durP2;ratioP2;P2;SDS_P1;SDS_P2;PMS_P1;PMS_P2;Temp;Humidity;BMP_temperature;BMP_pressure;BME280_temperature;BME280_humidity;BME280_pressure;Samples;Min_cycle;Max_cycle;Signal;HPM_P1;HPM_P2
2021/08/20 00:00:35;;;;;;;4.15;2.25;;;;;;;;;;5120575;28;20047;-85
2021/08/20 00:03:02;;;;;;;3.83;2.28;;;;;;;;;;5119751;28;20710;-84
2021/08/20 00:05:28;;;;;;;5.05;2.08;;;;;;;;;;5120259;28;20051;-85
2021/08/20 00:07:55;;;;;;;4.50;2.17;;;;;;;;;;5120012;28;20044;-84
2021/08/20 00:10:24;;;;;;;4.18;2.03;;;;;;;;;;5120237;28;20043;-85
2021/08/20 00:12:51;;;;;;;3.33;2.08;;;;;;;;;;5123197;28;20047;-83
2021/08/20 00:15:18;;;;;;;4.90;2.50;;;;;;;;;;5125166;28;20051;-84
2021/08/20 00:17:48;;;;;;;4.43;2.95;;;;;;;;;;5122884;28;20040;-85
2021/08/20 00:20:15;;;;;;;3.83;2.30;;;;;;;;;;5120219;28;20075;-83
2021/08/20 00:22:42;;;;;;;4.53;2.60;;;;;;;;;;5128589;28;20039;-90
2021/08/20 00:25:10;;;;;;;3.95;2.22;;;;;;;;;;5140836;28;20099;-89
2021/08/20 00:27:40;;;;;;;3.30;1.98;;;;;;;;;;5126467;28;20052;-84
2021/08/20 00:30:11;;;;;;;3.58;1.98;;;;;;;;;;5117234;28;20043;-83
2021/08/20 00:32:42;;;;;;;4.20;1.92;;;;;;;;;;5116454;28;20049;-85
2021/08/20 00:35:14;;;;;;;3.63;2.33;;;;;;;;;;5117340;28;20048;-84
2021/08/20 00:37:41;;;;;;;5.53;2.40;;;;;;;;;;5118955;28;20067;-84
2021/08/20 00:40:09;;;;;;;3.22;1.80;;;;;;;;;;5118712;28;20093;-85
2021/08/20 00:42:35;;;;;;;3.42;2.30;;;;;;;;;;5117933;28;20047;-85
2021/08/20 00:45:04;;;;;;;4.63;2.63;;;;;;;;;;5118598;28;20059;-84
2021/08/20 00:47:31;;;;;;;3.90;2.20;;;;;;;;;;5117867;28;20615;-84
2021/08/20 00:49:58;;;;;;;4.25;2.30;;;;;;;;;;5118032;28;20051;-85
2021/08/20 00:52:27;;;;;;;5.07;2.40;;;;;;;;;;5118026;28;20048;-85
2021/08/20 00:54:54;;;;;;;4.03;2.40;;;;;;;;;;5118363;28;20490;-84
2021/08/20 00:57:21;;;;;;;5.25;2.88;;;;;;;;;;5119056;28;20055;-84
2021/08/20 00:59:49;;;;;;;5.15;2.53;;;;;;;;;;5118054;28;20048;-84
2021/08/20 01:02:18;;;;;;;4.07;2.47;;;;;;;;;;5100137;28;20393;-84
2021/08/20 01:04:44;;;;;;;5.18;2.55;;;;;;;;;;5095229;28;20095;-84
2021/08/20 01:07:11;;;;;;;5.25;3.13;;;;;;;;;;5112724;28;20044;-82
2021/08/20 01:09:38;;;;;;;4.20;2.55;;;;;;;;;;5116376;28;20048;-84
2021/08/20 01:12:09;;;;;;;5.30;2.70;;;;;;;;;;5102555;28;20048;-84
2021/08/20 01:14:37;;;;;;;4.93;2.83;;;;;;;;;;5095495;28;20051;-85
2021/08/20 01:17:06;;;;;;;4.18;2.60;;;;;;;;;;5094084;28;20052;-84
2021/08/20 01:19:34;;;;;;;4.28;2.65;;;;;;;;;;5094430;28;20490;-83
2021/08/20 01:22:01;;;;;;;4.75;2.63;;;;;;;;;;5094422;28;20454;-84
2021/08/20 01:24:29;;;;;;;4.90;3.00;;;;;;;;;;5094208;28;20048;-84
2021/08/20 01:26:57;;;;;;;3.25;2.35;;;;;;;;;;5094370;28;20443;-84
2021/08/20 01:29:24;;;;;;;4.22;2.60;;;;;;;;;;5094150;28;20052;-84
2021/08/20 01:31:51;;;;;;;4.95;2.83;;;;;;;;;;5094174;28;20571;-84
2021/08/20 01:34:19;;;;;;;5.22;2.83;;;;;;;;;;5093867;28;20048;-84
2021/08/20 01:36:45;;;;;;;4.45;2.78;;;;;;;;;;5105171;28;20039;-84
2021/08/20 01:39:12;;;;;;;4.40;2.35;;;;;;;;;;5113739;28;20117;-84
2021/08/20 01:41:39;;;;;;;3.65;2.38;;;;;;;;;;5114120;28;20048;-84
2021/08/20 01:44:07;;;;;;;5.00;2.90;;;;;;;;;;5113772;28;20047;-84
2021/08/20 01:46:34;;;;;;;4.80;2.75;;;;;;;;;;5113155;28;20047;-84
2021/08/20 01:49:03;;;;;;;5.00;2.88;;;;;;;;;;5112757;28;20043;-84
2021/08/20 01:51:33;;;;;;;5.18;2.60;;;;;;;;;;5114134;28;20043;-84
2021/08/20 01:54:02;;;;;;;4.35;3.22;;;;;;;;;;5114340;28;20048;-83
2021/08/20 01:56:31;;;;;;;3.33;2.13;;;;;;;;;;5113647;28;20048;-84
2021/08/20 01:58:59;;;;;;;5.03;3.25;;;;;;;;;;5114411;28;20442;-84
2021/08/20 02:01:29;;;;;;;4.20;2.35;;;;;;;;;;5112466;28;20043;-84
2021/08/20 02:03:56;;;;;;;3.72;2.38;;;;;;;;;;5094644;28;20135;-84
2021/08/20 02:06:24;;;;;;;5.40;2.60;;;;;;;;;;5094037;28;20051;-84
2021/08/20 02:08:51;;;;;;;4.53;2.40;;;;;;;;;;5094486;28;20076;-84
2021/08/20 02:11:18;;;;;;;4.32;2.70;;;;;;;;;;5094600;28;20525;-86
2021/08/20 02:13:46;;;;;;;4.72;2.83;;;;;;;;;;5096220;28;20048;-84
2021/08/20 02:16:13;;;;;;;5.20;2.80;;;;;;;;;;5096161;28;20054;-84
2021/08/20 02:18:42;;;;;;;4.97;3.00;;;;;;;;;;5095729;28;20079;-85
2021/08/20 02:21:09;;;;;;;4.75;2.80;;;;;;;;;;5096421;28;20047;-84
2021/08/20 02:23:38;;;;;;;4.35;3.28;;;;;;;;;;5095909;28;20051;-84
2021/08/20 02:26:05;;;;;;;4.55;2.83;;;;;;;;;;5096268;28;20070;-84
2021/08/20 02:28:32;;;;;;;4.40;2.67;;;;;;;;;;5095654;28;20048;-84
2021/08/20 02:30:59;;;;;;;4.85;3.50;;;;;;;;;;5095393;28;20040;-86
2021/08/20 02:33:26;;;;;;;4.03;2.92;;;;;;;;;;5095282;28;20097;-84
2021/08/20 02:35:54;;;;;;;4.20;2.90;;;;;;;;;;5095984;28;20051;-84
2021/08/20 02:38:21;;;;;;;4.20;3.03;;;;;;;;;;5096171;28;20043;-84
2021/08/20 02:40:48;;;;;;;5.25;3.05;;;;;;;;;;5095942;28;20048;-84
2021/08/20 02:43:15;;;;;;;4.43;2.95;;;;;;;;;;5097969;28;20048;-83
2021/08/20 02:45:42;;;;;;;5.07;3.20;;;;;;;;;;5104421;28;20056;-82
2021/08/20 02:48:09;;;;;;;5.55;3.42;;;;;;;;;;5106746;28;20051;-82
2021/08/20 02:50:35;;;;;;;4.40;3.00;;;;;;;;;;5114400;28;20036;-91
2021/08/20 02:53:04;;;;;;;5.95;3.20;;;;;;;;;;5118052;28;20070;-89
2021/08/20 02:55:31;;;;;;;4.47;2.80;;;;;;;;;;5106926;28;20055;-84
2021/08/20 02:57:58;;;;;;;4.20;2.92;;;;;;;;;;5098446;28;20044;-87
2021/08/20 03:00:25;;;;;;;6.47;3.40;;;;;;;;;;5097167;28;20059;-84
2021/08/20 03:02:51;;;;;;;5.00;3.00;;;;;;;;;;5101917;28;20048;-84
2021/08/20 03:05:18;;;;;;;4.53;2.85;;;;;;;;;;5104579;28;20109;-85
2021/08/20 03:07:45;;;;;;;6.63;3.63;;;;;;;;;;5102392;28;20059;-84
2021/08/20 03:10:13;;;;;;;5.63;3.58;;;;;;;;;;5101432;28;20054;-84
2021/08/20 03:12:40;;;;;;;4.35;3.15;;;;;;;;;;5101663;28;20055;-85
2021/08/20 03:15:08;;;;;;;4.43;3.15;;;;;;;;;;5103569;28;20044;-85
2021/08/20 03:17:35;;;;;;;5.93;3.72;;;;;;;;;;5102693;28;20048;-84
2021/08/20 03:20:02;;;;;;;4.82;3.25;;;;;;;;;;5102618;28;20051;-85
2021/08/20 03:22:29;;;;;;;5.32;2.90;;;;;;;;;;5106864;28;20047;-84
2021/08/20 03:24:57;;;;;;;5.28;3.08;;;;;;;;;;5102988;28;20041;-86
2021/08/20 03:27:26;;;;;;;5.85;4.13;;;;;;;;;;5103153;28;20052;-84
2021/08/20 03:29:53;;;;;;;4.90;3.22;;;;;;;;;;5103886;28;20141;-84
2021/08/20 03:32:20;;;;;;;5.78;3.45;;;;;;;;;;5110028;28;20048;-84
2021/08/20 03:34:46;;;;;;;4.78;3.33;;;;;;;;;;5116708;28;20088;-84
2021/08/20 03:37:14;;;;;;;4.82;3.13;;;;;;;;;;5115502;28;20040;-83
2021/08/20 03:39:42;;;;;;;4.90;2.97;;;;;;;;;;5115809;28;20058;-83
2021/08/20 03:42:09;;;;;;;5.35;3.20;;;;;;;;;;5116315;28;20063;-84
2021/08/20 03:44:38;;;;;;;6.85;3.25;;;;;;;;;;5106020;28;20051;-84
2021/08/20 03:47:05;;;;;;;4.43;2.90;;;;;;;;;;5095707;28;20048;-84
2021/08/20 03:49:32;;;;;;;5.65;3.25;;;;;;;;;;5106117;28;20063;-83
2021/08/20 03:51:59;;;;;;;4.85;3.38;;;;;;;;;;5098071;28;20474;-84
2021/08/20 03:54:29;;;;;;;5.03;3.92;;;;;;;;;;5097762;28;20048;-84
2021/08/20 03:56:56;;;;;;;5.22;3.15;;;;;;;;;;5098722;28;20051;-84
2021/08/20 03:59:23;;;;;;;5.05;3.17;;;;;;;;;;5097609;28;20051;-84
2021/08/20 04:01:52;;;;;;;5.65;3.63;;;;;;;;;;5105209;28;20056;-85
2021/08/20 04:04:18;;;;;;;6.35;3.90;;;;;;;;;;5106411;28;20093;-85
2021/08/20 04:06:46;;;;;;;6.28;4.07;;;;;;;;;;5103620;28;20051;-84
2021/08/20 04:09:16;;;;;;;5.78;4.05;;;;;;;;;;5101974;28;20050;-84
2021/08/20 04:11:43;;;;;;;7.87;4.23;;;;;;;;;;5102579;28;20051;-85
2021/08/20 04:14:09;;;;;;;4.97;3.47;;;;;;;;;;5103210;28;20292;-85
2021/08/20 04:16:37;;;;;;;6.07;3.75;;;;;;;;;;5103854;28;20048;-85
2021/08/20 04:19:11;;;;;;;5.90;3.40;;;;;;;;;;5099006;28;20088;-83
2021/08/20 04:21:39;;;;;;;4.22;2.80;;;;;;;;;;5098855;28;20048;-84
2021/08/20 04:24:08;;;;;;;6.60;3.80;;;;;;;;;;5099255;28;20048;-83
2021/08/20 04:26:35;;;;;;;6.55;3.75;;;;;;;;;;5098602;28;20044;-83
2021/08/20 04:29:04;;;;;;;5.40;3.40;;;;;;;;;;5098804;28;20056;-84
2021/08/20 04:31:31;;;;;;;6.00;3.47;;;;;;;;;;5099875;28;20048;-83
2021/08/20 04:34:02;;;;;;;5.80;3.50;;;;;;;;;;5103013;28;20044;-83
2021/08/20 04:36:30;;;;;;;5.72;3.78;;;;;;;;;;5107489;22;20128;-79
2021/08/20 04:38:57;;;;;;;6.03;3.90;;;;;;;;;;5098802;28;20101;-79
2021/08/20 04:41:24;;;;;;;5.68;4.13;;;;;;;;;;5099062;28;20525;-78
2021/08/20 04:43:51;;;;;;;6.70;3.90;;;;;;;;;;5098939;28;20097;-79
2021/08/20 04:46:18;;;;;;;7.82;4.90;;;;;;;;;;5098311;28;20076;-79
2021/08/20 04:48:44;;;;;;;5.65;3.45;;;;;;;;;;5098721;28;20105;-79
2021/08/20 04:51:11;;;;;;;5.50;3.83;;;;;;;;;;5098359;28;20044;-79
2021/08/20 04:53:40;;;;;;;6.22;3.40;;;;;;;;;;5098768;28;20048;-79
2021/08/20 04:56:07;;;;;;;5.10;3.50;;;;;;;;;;5098131;28;20126;-80
2021/08/20 04:58:35;;;;;;;6.43;4.78;;;;;;;;;;5098268;28;20098;-79
2021/08/20 05:01:03;;;;;;;7.38;4.63;;;;;;;;;;5098582;28;20048;-81
2021/08/20 05:03:31;;;;;;;5.82;4.40;;;;;;;;;;5098474;28;20108;-81
2021/08/20 05:05:58;;;;;;;7.32;4.50;;;;;;;;;;5097814;28;20052;-79
2021/08/20 05:08:24;;;;;;;5.93;4.13;;;;;;;;;;5097865;28;20044;-79
2021/08/20 05:10:53;;;;;;;6.05;3.80;;;;;;;;;;5097786;28;20044;-79
2021/08/20 05:13:19;;;;;;;5.85;3.97;;;;;;;;;;5090166;28;20450;-80
2021/08/20 05:15:46;;;;;;;6.40;4.10;;;;;;;;;;5096842;28;20040;-79
2021/08/20 05:18:13;;;;;;;5.80;3.92;;;;;;;;;;5097799;28;20048;-79
2021/08/20 05:20:39;;;;;;;6.40;3.92;;;;;;;;;;5098280;28;20117;-79
2021/08/20 05:23:06;;;;;;;6.65;4.00;;;;;;;;;;5097665;28;20481;-79
2021/08/20 05:25:34;;;;;;;6.35;4.88;;;;;;;;;;5096030;28;20044;-79
2021/08/20 05:28:04;;;;;;;7.18;4.53;;;;;;;;;;5098009;28;20048;-79
2021/08/20 05:30:31;;;;;;;7.32;4.50;;;;;;;;;;5097123;28;20066;-79
2021/08/20 05:32:58;;;;;;;5.82;4.10;;;;;;;;;;5098750;28;20161;-80
2021/08/20 05:35:25;;;;;;;5.70;4.25;;;;;;;;;;5097700;28;20048;-81
2021/08/20 05:37:51;;;;;;;6.53;4.97;;;;;;;;;;5097971;28;20042;-81
2021/08/20 05:40:18;;;;;;;6.15;4.40;;;;;;;;;;5098062;28;20052;-80
2021/08/20 05:42:45;;;;;;;5.93;4.57;;;;;;;;;;5097868;28;20097;-80
2021/08/20 05:45:13;;;;;;;6.47;4.80;;;;;;;;;;5097419;28;20097;-80
2021/08/20 05:47:40;;;;;;;6.40;4.63;;;;;;;;;;5098126;28;20439;-80
2021/08/20 05:50:08;;;;;;;6.78;5.88;;;;;;;;;;5097347;28;20040;-80
2021/08/20 05:52:36;;;;;;;6.57;4.97;;;;;;;;;;5097591;28;20048;-79
2021/08/20 05:55:04;;;;;;;6.20;5.03;;;;;;;;;;5096774;28;20105;-80
2021/08/20 05:57:31;;;;;;;7.00;5.32;;;;;;;;;;5097233;28;20052;-79
2021/08/20 05:59:58;;;;;;;10.05;7.00;;;;;;;;;;5096921;28;20047;-79
2021/08/20 06:02:26;;;;;;;7.32;5.18;;;;;;;;;;5097232;28;20113;-78
2021/08/20 06:04:52;;;;;;;7.20;5.22;;;;;;;;;;5098000;28;20044;-78
2021/08/20 06:07:19;;;;;;;6.38;4.70;;;;;;;;;;5106396;28;20048;-79
2021/08/20 06:09:46;;;;;;;5.97;4.53;;;;;;;;;;5099290;28;20408;-78
2021/08/20 06:12:14;;;;;;;9.68;5.47;;;;;;;;;;5097856;28;20097;-79
2021/08/20 06:14:41;;;;;;;6.80;4.50;;;;;;;;;;5098101;28;20040;-79
2021/08/20 06:17:07;;;;;;;7.13;5.25;;;;;;;;;;5097888;28;20485;-79
2021/08/20 06:19:36;;;;;;;6.03;4.50;;;;;;;;;;5099395;28;20394;-82
2021/08/20 06:22:03;;;;;;;10.73;5.28;;;;;;;;;;5099751;28;20513;-81
2021/08/20 06:24:29;;;;;;;7.88;5.78;;;;;;;;;;5100194;28;20059;-79
2021/08/20 06:26:56;;;;;;;6.80;4.95;;;;;;;;;;5099344;28;20070;-81
2021/08/20 06:29:23;;;;;;;8.45;6.20;;;;;;;;;;5101456;28;20047;-79
2021/08/20 06:31:50;;;;;;;7.85;6.40;;;;;;;;;;5107657;28;20073;-79
2021/08/20 06:34:18;;;;;;;9.10;5.47;;;;;;;;;;5108441;28;20039;-80
2021/08/20 06:36:47;;;;;;;9.75;6.38;;;;;;;;;;5107244;28;20040;-79
2021/08/20 06:39:14;;;;;;;9.63;7.18;;;;;;;;;;5100959;28;20420;-80
2021/08/20 06:41:41;;;;;;;11.65;10.45;;;;;;;;;;5099125;28;20109;-80
2021/08/20 06:44:08;;;;;;;9.25;7.25;;;;;;;;;;5099916;28;20040;-79
2021/08/20 06:46:36;;;;;;;9.73;6.75;;;;;;;;;;5098306;28;20048;-80
2021/08/20 06:49:03;;;;;;;9.80;6.05;;;;;;;;;;5097464;28;20083;-81
2021/08/20 06:51:29;;;;;;;9.05;6.82;;;;;;;;;;5098003;28;20566;-80
2021/08/20 06:53:58;;;;;;;8.27;5.97;;;;;;;;;;5097945;28;20500;-80
2021/08/20 06:56:24;;;;;;;9.60;7.13;;;;;;;;;;5097346;28;20048;-81
2021/08/20 06:58:51;;;;;;;9.05;6.70;;;;;;;;;;5097805;28;20044;-81
2021/08/20 07:01:18;;;;;;;8.23;5.50;;;;;;;;;;5095205;28;20044;-81
2021/08/20 07:03:44;;;;;;;6.40;4.68;;;;;;;;;;5073064;28;20071;-80
2021/08/20 07:06:19;;;;;;;7.75;4.75;;;;;;;;;;5070406;28;20052;-81
2021/08/20 07:08:46;;;;;;;7.15;5.07;;;;;;;;;;5075101;28;20501;-80
2021/08/20 07:11:14;;;;;;;7.30;5.53;;;;;;;;;;5075048;28;20048;-80
2021/08/20 07:13:41;;;;;;;6.45;4.65;;;;;;;;;;5074757;28;20052;-80
2021/08/20 07:16:08;;;;;;;6.10;5.05;;;;;;;;;;5074085;28;20569;-80
2021/08/20 07:18:35;;;;;;;7.78;4.88;;;;;;;;;;5074296;28;20044;-78
2021/08/20 07:21:02;;;;;;;10.40;4.80;;;;;;;;;;5074455;28;20045;-81
2021/08/20 07:23:29;;;;;;;7.28;4.80;;;;;;;;;;5075355;28;20040;-81
2021/08/20 07:25:55;;;;;;;6.90;4.82;;;;;;;;;;5075297;28;20100;-81
2021/08/20 07:28:23;;;;;;;5.97;4.80;;;;;;;;;;5075626;28;20098;-78
2021/08/20 07:30:50;;;;;;;7.75;4.63;;;;;;;;;;5074942;28;20040;-79
2021/08/20 07:33:17;;;;;;;7.50;5.30;;;;;;;;;;5073930;28;20041;-80
2021/08/20 07:35:44;;;;;;;6.70;4.63;;;;;;;;;;5070286;28;20451;-79
2021/08/20 07:38:10;;;;;;;8.15;4.45;;;;;;;;;;5075218;28;20045;-80
2021/08/20 07:40:37;;;;;;;5.85;4.45;;;;;;;;;;5075374;28;20053;-80
2021/08/20 07:43:04;;;;;;;7.55;5.25;;;;;;;;;;5074440;28;20052;-79
2021/08/20 07:45:32;;;;;;;9.10;5.60;;;;;;;;;;5073760;28;20056;-80
2021/08/20 07:47:59;;;;;;;7.20;5.22;;;;;;;;;;5077051;28;20040;-80
2021/08/20 07:50:26;;;;;;;5.68;4.38;;;;;;;;;;5078193;28;20496;-80
2021/08/20 07:52:53;;;;;;;7.72;4.63;;;;;;;;;;5079263;28;20053;-80
2021/08/20 07:55:20;;;;;;;7.43;4.85;;;;;;;;;;5082527;28;20044;-79
2021/08/20 07:57:48;;;;;;;7.55;4.78;;;;;;;;;;5086936;28;20049;-79
2021/08/20 08:00:15;;;;;;;6.45;5.07;;;;;;;;;;5088544;28;20486;-79
2021/08/20 08:02:43;;;;;;;7.25;5.53;;;;;;;;;;5088959;28;20052;-79
2021/08/20 08:05:10;;;;;;;7.00;4.70;;;;;;;;;;5088629;28;20070;-79
2021/08/20 08:07:37;;;;;;;6.03;4.68;;;;;;;;;;5082313;28;20465;-81
2021/08/20 08:10:05;;;;;;;6.25;3.92;;;;;;;;;;5078642;28;20060;-80
2021/08/20 08:12:32;;;;;;;6.93;4.95;;;;;;;;;;5080156;28;20093;-81
2021/08/20 08:14:59;;;;;;;7.97;5.38;;;;;;;;;;5079223;28;20052;-80
2021/08/20 08:17:26;;;;;;;7.22;5.20;;;;;;;;;;5080445;28;20044;-80
2021/08/20 08:19:54;;;;;;;8.40;5.45;;;;;;;;;;5093830;28;20028;-80
2021/08/20 08:22:20;;;;;;;8.15;6.20;;;;;;;;;;5099770;28;20036;-79
2021/08/20 08:24:47;;;;;;;8.50;5.13;;;;;;;;;;5099298;28;20037;-79
2021/08/20 08:27:14;;;;;;;7.25;5.38;;;;;;;;;;5098833;28;20040;-79
2021/08/20 08:29:41;;;;;;;7.13;5.57;;;;;;;;;;5099112;28;20057;-79
2021/08/20 08:32:08;;;;;;;7.18;5.78;;;;;;;;;;5097688;28;20045;-80
2021/08/20 08:34:35;;;;;;;7.88;6.10;;;;;;;;;;5077723;28;20045;-79
2021/08/20 08:37:03;;;;;;;8.00;5.15;;;;;;;;;;5071722;28;20048;-79
2021/08/20 08:39:30;;;;;;;6.93;5.53;;;;;;;;;;5072564;28;20114;-82
2021/08/20 08:41:57;;;;;;;8.32;5.80;;;;;;;;;;5073022;28;20052;-80
2021/08/20 08:44:24;;;;;;;9.02;5.63;;;;;;;;;;5074264;28;20044;-84
2021/08/20 08:46:51;;;;;;;7.50;5.65;;;;;;;;;;5073504;28;20098;-81
2021/08/20 08:49:21;;;;;;;9.02;6.28;;;;;;;;;;5075828;28;20090;-81
2021/08/20 08:51:50;;;;;;;9.52;5.90;;;;;;;;;;5075547;28;20409;-83
2021/08/20 08:54:19;;;;;;;8.43;6.60;;;;;;;;;;5075892;28;20083;-81
2021/08/20 08:56:46;;;;;;;7.40;6.03;;;;;;;;;;5073901;28;20048;-77
2021/08/20 08:59:13;;;;;;;8.35;6.50;;;;;;;;;;5073980;28;20105;-77
2021/08/20 09:01:40;;;;;;;7.40;4.80;;;;;;;;;;5075459;28;20095;-78
2021/08/20 09:04:12;;;;;;;7.90;6.43;;;;;;;;;;5076032;28;20045;-78
2021/08/20 09:06:41;;;;;;;6.07;4.78;;;;;;;;;;5075186;28;20048;-77
2021/08/20 09:09:09;;;;;;;7.20;5.28;;;;;;;;;;5074541;28;20044;-77
2021/08/20 09:11:40;;;;;;;7.82;5.40;;;;;;;;;;5074560;28;20049;-83
2021/08/20 09:14:09;;;;;;;6.60;5.28;;;;;;;;;;5077299;28;20055;-80
2021/08/20 09:16:38;;;;;;;8.23;5.43;;;;;;;;;;5074195;28;20081;-80
2021/08/20 09:19:10;;;;;;;6.18;5.18;;;;;;;;;;5075565;28;20080;-82
2021/08/20 09:21:37;;;;;;;7.25;4.97;;;;;;;;;;5077529;28;20060;-81
2021/08/20 09:24:24;;;;;;;6.45;5.18;;;;;;;;;;5076992;28;20044;-81
2021/08/20 09:26:53;;;;;;;8.10;5.38;;;;;;;;;;5073483;28;20044;-81
2021/08/20 09:29:21;;;;;;;8.40;5.65;;;;;;;;;;5075086;28;20045;-79
2021/08/20 09:31:51;;;;;;;9.60;7.22;;;;;;;;;;5073053;28;20058;-79
2021/08/20 09:34:18;;;;;;;11.30;8.45;;;;;;;;;;5074380;28;20444;-78
2021/08/20 09:36:45;;;;;;;7.65;6.07;;;;;;;;;;5073195;28;20475;-77
2021/08/20 09:39:12;;;;;;;9.43;7.75;;;;;;;;;;5074402;28;20044;-79
2021/08/20 09:41:44;;;;;;;6.85;5.30;;;;;;;;;;5074560;28;20044;-79
2021/08/20 09:44:24;;;;;;;6.43;4.97;;;;;;;;;;5074866;28;20045;-79
2021/08/20 09:46:55;;;;;;;7.57;5.35;;;;;;;;;;5075300;28;20055;-79
2021/08/20 09:49:22;;;;;;;6.57;3.85;;;;;;;;;;5075760;28;20048;-79
2021/08/20 09:51:49;;;;;;;6.90;4.50;;;;;;;;;;5080562;28;20190;-78
2021/08/20 09:54:18;;;;;;;7.97;5.28;;;;;;;;;;5085005;28;20044;-78
2021/08/20 09:56:46;;;;;;;7.55;5.05;;;;;;;;;;5086079;28;20067;-78
2021/08/20 09:59:15;;;;;;;7.10;4.93;;;;;;;;;;5087082;28;20102;-78
2021/08/20 10:01:43;;;;;;;7.03;4.57;;;;;;;;;;5077520;28;20044;-78
2021/08/20 10:04:13;;;;;;;5.45;4.03;;;;;;;;;;5076774;28;20105;-79
2021/08/20 10:06:42;;;;;;;5.83;4.20;;;;;;;;;;5075943;28;20048;-79
2021/08/20 10:09:10;;;;;;;6.03;4.53;;;;;;;;;;5075974;28;20335;-80
2021/08/20 10:11:41;;;;;;;5.43;3.17;;;;;;;;;;5075294;28;20459;-79
2021/08/20 10:14:09;;;;;;;3.83;2.25;;;;;;;;;;5057702;28;20414;-79
2021/08/20 10:16:38;;;;;;;5.13;2.85;;;;;;;;;;5055322;28;20072;-78
2021/08/20 10:19:08;;;;;;;4.88;2.47;;;;;;;;;;5055719;28;20405;-79
2021/08/20 10:21:37;;;;;;;4.05;2.20;;;;;;;;;;5055332;28;20682;-78
2021/08/20 10:24:05;;;;;;;4.30;2.30;;;;;;;;;;5053718;28;20099;-78
2021/08/20 10:26:33;;;;;;;5.53;2.60;;;;;;;;;;5053895;28;20132;-79
2021/08/20 10:29:02;;;;;;;4.40;2.28;;;;;;;;;;5055321;28;20037;-78
2021/08/20 10:31:30;;;;;;;5.47;2.20;;;;;;;;;;5054560;28;20048;-78
2021/08/20 10:33:58;;;;;;;3.75;2.25;;;;;;;;;;5054746;28;20049;-79
2021/08/20 10:36:40;;;;;;;3.85;2.15;;;;;;;;;;5090628;22;20057;-84
2021/08/20 10:39:08;;;;;;;11.18;3.22;;;;;;;;;;5133382;27;20055;-83
2021/08/20 10:41:35;;;;;;;4.32;2.50;;;;;;;;;;5136712;27;20096;-83
2021/08/20 10:44:04;;;;;;;4.30;2.70;;;;;;;;;;5136449;28;20043;-85
2021/08/20 10:47:07;;;;;;;5.07;2.75;;;;;;;;;;5145789;27;20083;-83
2021/08/20 10:50:06;;;;;;;6.63;2.90;;;;;;;;;;5158329;27;20046;-83
2021/08/20 10:52:36;;;;;;;4.65;2.28;;;;;;;;;;5157443;27;20126;-85
2021/08/20 10:55:24;;;;;;;4.30;2.90;;;;;;;;;;5157257;27;20066;-84
2021/08/20 10:58:12;;;;;;;4.45;3.03;;;;;;;;;;5157765;27;20494;-85
2021/08/20 11:00:46;;;;;;;4.80;2.67;;;;;;;;;;5157959;27;20398;-84
2021/08/20 11:03:16;;;;;;;4.43;2.38;;;;;;;;;;5134160;27;20050;-84
2021/08/20 11:05:49;;;;;;;4.80;2.60;;;;;;;;;;5134965;28;20112;-84
2021/08/20 11:08:43;;;;;;;4.70;2.22;;;;;;;;;;5135174;28;20487;-82
2021/08/20 11:14:39;;;;;;;4.55;2.65;;;;;;;;;;5129058;28;20055;-88
2021/08/20 11:17:15;;;;;;;4.32;2.15;;;;;;;;;;5133335;28;20048;-85
2021/08/20 11:19:51;;;;;;;3.78;2.63;;;;;;;;;;5134460;28;20039;-88
2021/08/20 11:22:34;;;;;;;5.00;2.55;;;;;;;;;;5135604;27;20047;-85
2021/08/20 11:25:23;;;;;;;8.07;5.10;;;;;;;;;;5138233;27;20319;-83
2021/08/20 11:28:01;;;;;;;6.18;3.58;;;;;;;;;;5138960;27;20043;-84
2021/08/20 11:30:29;;;;;;;4.07;2.50;;;;;;;;;;5138325;27;20043;-84
2021/08/20 11:33:22;;;;;;;4.53;2.53;;;;;;;;;;5137532;27;20059;-84
2021/08/20 11:35:52;;;;;;;4.80;2.22;;;;;;;;;;5137509;27;20047;-84
2021/08/20 11:38:38;;;;;;;;;;;;;;;;;;5139074;27;20668;-87
2021/08/20 11:41:12;;;;;;;3.92;2.08;;;;;;;;;;5142115;27;19998;-83
2021/08/20 11:43:46;;;;;;;3.33;1.80;;;;;;;;;;5143894;27;20476;-83
2021/08/20 11:46:13;;;;;;;4.18;2.13;;;;;;;;;;5145263;27;20039;-83
2021/08/20 11:48:45;;;;;;;5.15;3.67;;;;;;;;;;5142757;27;20535;-83
2021/08/20 11:51:12;;;;;;;5.07;3.55;;;;;;;;;;5142972;27;20096;-84
2021/08/20 11:53:48;;;;;;;5.10;3.13;;;;;;;;;;5143707;27;20039;-84
2021/08/20 11:56:16;;;;;;;4.45;2.53;;;;;;;;;;5150320;27;20035;-84
2021/08/20 11:58:44;;;;;;;4.40;2.50;;;;;;;;;;5152414;27;20039;-84
2021/08/20 12:01:15;;;;;;;4.07;2.33;;;;;;;;;;5151743;27;20484;-84
2021/08/20 12:03:45;;;;;;;4.57;2.50;;;;;;;;;;5131457;28;20089;-83
2021/08/20 12:06:13;;;;;;;4.90;2.80;;;;;;;;;;5125870;28;20409;-83
2021/08/20 12:08:42;;;;;;;4.95;2.80;;;;;;;;;;5126243;28;20043;-82
2021/08/20 12:11:11;;;;;;;3.50;2.40;;;;;;;;;;5126306;28;20100;-83
2021/08/20 12:13:45;;;;;;;6.43;3.23;;;;;;;;;;5124543;28;20077;-83
2021/08/20 12:16:13;;;;;;;5.38;3.70;;;;;;;;;;5137494;27;20031;-86
2021/08/20 12:18:43;;;;;;;4.47;2.50;;;;;;;;;;5138743;27;20035;-86
2021/08/20 12:21:17;;;;;;;4.65;2.67;;;;;;;;;;5143860;27;20515;-84
2021/08/20 12:23:58;;;;;;;4.80;2.72;;;;;;;;;;5148844;27;20039;-85
2021/08/20 12:26:26;;;;;;;4.60;2.38;;;;;;;;;;5148250;27;20121;-84
2021/08/20 12:28:52;;;;;;;5.15;2.83;;;;;;;;;;5148741;27;20077;-85
2021/08/20 12:31:22;;;;;;;4.90;3.00;;;;;;;;;;5152236;27;20023;-85
2021/08/20 12:34:00;;;;;;;6.03;3.20;;;;;;;;;;5148215;27;20066;-83
2021/08/20 12:36:27;;;;;;;4.05;2.10;;;;;;;;;;5150302;27;20068;-85
2021/08/20 12:39:15;;;;;;;5.20;2.80;;;;;;;;;;5153617;27;20103;-84
2021/08/20 12:41:43;;;;;;;4.82;2.83;;;;;;;;;;5151008;27;20073;-85
2021/08/20 12:44:13;;;;;;;5.25;3.20;;;;;;;;;;5143504;27;20101;-85
2021/08/20 12:46:42;;;;;;;3.58;2.25;;;;;;;;;;5142742;27;20079;-85
2021/08/20 12:49:11;;;;;;;4.30;3.00;;;;;;;;;;5143434;27;20137;-85
2021/08/20 12:51:39;;;;;;;4.03;2.85;;;;;;;;;;5157118;27;20046;-85
2021/08/20 12:54:07;;;;;;;4.30;2.78;;;;;;;;;;5151573;27;20099;-83
2021/08/20 12:56:39;;;;;;;4.35;2.50;;;;;;;;;;5145004;27;20096;-85
2021/08/20 12:59:07;;;;;;;3.90;2.30;;;;;;;;;;5142349;27;20449;-84
2021/08/20 13:01:35;;;;;;;5.43;3.42;;;;;;;;;;5137553;27;20061;-85
2021/08/20 13:04:02;;;;;;;5.30;3.63;;;;;;;;;;5121143;28;20056;-84
2021/08/20 13:06:33;;;;;;;4.00;2.60;;;;;;;;;;5119973;28;20047;-85
2021/08/20 13:09:01;;;;;;;3.95;2.30;;;;;;;;;;5123022;28;20051;-84
2021/08/20 13:11:28;;;;;;;4.40;2.50;;;;;;;;;;5121863;28;20100;-85
2021/08/20 13:13:57;;;;;;;4.45;2.70;;;;;;;;;;5120149;28;20040;-85
2021/08/20 13:16:24;;;;;;;5.80;3.50;;;;;;;;;;5117295;28;20100;-82
2021/08/20 13:18:50;;;;;;;4.93;3.08;;;;;;;;;;5120878;28;20051;-84
2021/08/20 13:21:20;;;;;;;4.30;3.00;;;;;;;;;;5118557;28;20100;-84
2021/08/20 13:23:48;;;;;;;4.35;3.05;;;;;;;;;;5117472;28;20046;-84
2021/08/20 13:26:15;;;;;;;4.60;2.75;;;;;;;;;;5117778;28;20079;-83
2021/08/20 13:28:43;;;;;;;4.95;2.50;;;;;;;;;;5117040;28;20195;-83
2021/08/20 13:31:13;;;;;;;6.72;2.60;;;;;;;;;;5118279;28;20043;-84
2021/08/20 13:33:40;;;;;;;4.95;2.53;;;;;;;;;;5115747;28;20044;-84
2021/08/20 13:36:14;;;;;;;4.10;3.00;;;;;;;;;;5119662;27;20095;-84
2021/08/20 13:38:44;;;;;;;3.85;2.60;;;;;;;;;;5138361;27;20186;-85
2021/08/20 13:41:11;;;;;;;3.65;2.50;;;;;;;;;;5138652;27;20047;-84
2021/08/20 13:43:40;;;;;;;3.63;2.20;;;;;;;;;;5137614;27;20419;-83
2021/08/20 13:46:06;;;;;;;4.13;2.50;;;;;;;;;;5137056;27;20051;-83
2021/08/20 13:48:35;;;;;;;3.70;2.30;;;;;;;;;;5137676;27;20065;-83
2021/08/20 13:51:01;;;;;;;3.65;2.33;;;;;;;;;;5139055;27;20050;-84
2021/08/20 13:53:29;;;;;;;3.67;2.40;;;;;;;;;;5137710;27;20100;-84
2021/08/20 13:55:56;;;;;;;4.25;2.50;;;;;;;;;;5135381;27;20043;-83
2021/08/20 13:58:23;;;;;;;6.70;2.90;;;;;;;;;;5135990;27;20096;-85
2021/08/20 14:00:49;;;;;;;3.70;2.67;;;;;;;;;;5136672;27;20102;-84
2021/08/20 14:03:17;;;;;;;4.55;2.60;;;;;;;;;;5135895;27;20119;-85
2021/08/20 14:05:53;;;;;;;5.57;2.75;;;;;;;;;;5135050;27;20100;-83
2021/08/20 14:08:20;;;;;;;4.10;2.42;;;;;;;;;;5136286;27;20050;-84
2021/08/20 14:10:46;;;;;;;3.70;2.67;;;;;;;;;;5135913;27;20071;-85
2021/08/20 14:13:13;;;;;;;5.47;2.55;;;;;;;;;;5135782;27;20101;-84
2021/08/20 14:15:40;;;;;;;4.10;2.45;;;;;;;;;;5134616;27;20074;-84
2021/08/20 14:18:07;;;;;;;4.30;2.90;;;;;;;;;;5135023;27;20043;-86
2021/08/20 14:20:36;;;;;;;4.78;2.80;;;;;;;;;;5135810;27;20495;-88
2021/08/20 14:23:04;;;;;;;4.70;2.40;;;;;;;;;;5134784;27;20049;-81
2021/08/20 14:25:31;;;;;;;6.70;2.50;;;;;;;;;;5135439;27;20048;-85
2021/08/20 14:27:58;;;;;;;4.25;2.30;;;;;;;;;;5136708;27;20491;-84
2021/08/20 14:30:25;;;;;;;4.50;3.15;;;;;;;;;;5136617;27;20475;-83
2021/08/20 14:32:52;;;;;;;5.65;4.53;;;;;;;;;;5136639;27;20069;-83
2021/08/20 14:35:41;;;;;;;9.30;6.72;;;;;;;;;;5135385;27;20051;-88
2021/08/20 14:38:09;;;;;;;4.90;3.50;;;;;;;;;;5137830;27;20120;-83
2021/08/20 14:40:36;;;;;;;3.58;2.42;;;;;;;;;;5146686;27;20042;-84
2021/08/20 14:43:03;;;;;;;3.88;2.65;;;;;;;;;;5158572;27;20031;-80
2021/08/20 14:45:30;;;;;;;4.78;2.80;;;;;;;;;;5143272;27;20043;-83
2021/08/20 14:47:56;;;;;;;4.03;2.70;;;;;;;;;;5134063;28;20043;-83
2021/08/20 14:50:23;;;;;;;4.28;2.75;;;;;;;;;;5133706;28;20096;-84
2021/08/20 14:52:50;;;;;;;3.78;2.35;;;;;;;;;;5132316;28;20058;-82
2021/08/20 14:55:19;;;;;;;3.95;2.60;;;;;;;;;;5132450;28;20043;-83